KABR/ABR METAR and TAF weather

Enter ICAO airport designator
Station Type Date Time Source
KABR METAR 2022/01/29 13:53 UTC NOAA

KABR 291353Z AUTO 23006KT 10SM CLR M12/M14 A2990 RMK AO2 SLP150 T11171144


Station Type Date Time Source
KABR Decoded METAR 2022/01/29 13:53 UTC NOAA

ABERDEEN REGIONAL AIRPORT, SD, United States (KABR) 45-27N 098-25W 400M
Jan 29, 2022 - 08:53 AM EST / 2022.01.29 1353 UTC
Wind: from the SW (230 degrees) at 7 MPH (6 KT):0
Visibility: 10 mile(s):0
Sky conditions: clear
Temperature: 10.9 F (-11.7 C)
Windchill: 0 F (-18 C):1
Dew Point: 6.1 F (-14.4 C)
Relative Humidity: 80%
Pressure (altimeter): 29.9 in. Hg (1012 hPa)
ob: KABR 291353Z AUTO 23006KT 10SM CLR M12/M14 A2990 RMK AO2 SLP150 T11171144
cycle: 14

Station Type Date Time Source
KABR TAF 2022/01/29 12:22 UTC NOAA

TAF KABR 291120Z 2912/3012 25009KT P6SM SCT200
FM291500 27011G19KT P6SM BKN200 WS020/34035KT
FM300900 03005KT 6SM BR BKN022

Example: see airport list